Terminal Aerodrome Forecast
Issued by NWS Boston, MA

Home | Current Version | Previous Version | Text Only | Print | Product List | Glossary On
Versions: 1 2 3 4 5 6 7 8 9 10 11 12 13 14 15 16 17 18 19 20 21 22 23 24 25 26 27 28 29 30 31 32 33 34 35 36 37 38 39 40 41 42
000
FTUS41 KBOX 300931 AAA
TAFBDL
TAF AMD
KBDL 300931Z 3010/3112 VRB03KT 3SM -SN BR SCT007 OVC020
     FM301700 33005KT P6SM OVC020
     FM302000 32010G19KT P6SM OVC020
     FM302300 32013G26KT P6SM OVC045
     FM310700 32016G29KT P6SM BKN070=

USA.gov is the U.S. government's official web portal to all federal, state and local government web resources and services.